Amelia Island, Florida
Current Conditions -  °F | °C
As of 2:35 AM on Thursday 23 Oct 2014 (Local Time) from KFHB Reporting Station
Clear Clear  
Wind Chill: 64°   Ceiling: Unl
Heat Index: 64°   Visibility: 10mi
Dew Point: 50°   Wind: 5mph
Humidity: 59%   Direction: 330°NNW
Pressure: 30.02"   Gusts: NA
Location:  30.6056°N, 81.5268°W
Report Text: KFHB 230635Z AUTO 33004KT 10SM CLR 18/10 A3002 RMK AO1
Loading
Personal Weather Stations






























Interactive Weather Map
Tropical Storm Tracking
New forecast layout! Learn more

10-Day Weather Forecast

Advertisements
Track Severe Weather on mobile